< < Back
Terminal Aerodrome Forecast


Current Version              Previous Versions:   1  2  3  4  5  6  7  8  9  

Terminal Aerodrome Forecast

041
FTUS44 KMRX 212322
TAFTYS
TAF
KTYS 212322Z 2200/2224 30010KT P6SM FEW035 BKN045
     FM220900 02007KT P6SM SKC=

Latest METAR

867
SAUS80 KWBC 221400 RRA
MTRTYS
METAR KTYS 221353Z 05012KT 10SM FEW032 14/06 A3027 RMK AO2 SLP247
T01440061


USA.gov is the U.S. government's official web portal to all federal, state and local government web resources and services.